Time;durP1;ratioP1;P1;durP2;ratioP2;P2;SDS_P1;SDS_P2;PMS_P1;PMS_P2;Temp;Humidity;BMP_temperature;BMP_pressure;BME280_temperature;BME280_humidity;BME280_pressure;Samples;Min_cycle;Max_cycle;Signal;HPM_P1;HPM_P2
2023/07/31 00:00:41;;;;;;;11.00;2.00;;;14.80;99.90;;;13.77;100.00;100496.00;4826292;29;20144;-85
2023/07/31 00:03:10;;;;;;;12.15;1.85;;;;;;;13.75;100.00;100494.31;4854043;29;20032;-83
2023/07/31 00:05:58;;;;;;;8.00;1.80;;;14.70;99.90;;;13.68;100.00;100502.75;4879166;28;20121;-85
2023/07/31 00:08:27;;;;;;;8.80;1.98;;;14.60;99.90;;;13.61;100.00;100497.00;4827168;29;20135;-84
2023/07/31 00:10:53;;;;;;;9.82;1.83;;;;;;;13.58;100.00;100505.09;4842931;28;20034;-85
2023/07/31 00:13:19;;;;;;;8.57;1.88;;;;;;;13.52;100.00;100503.72;4893357;28;20043;-85
2023/07/31 00:15:56;;;;;;;7.60;1.70;;;;;;;13.46;100.00;100501.44;4877919;28;20037;-85
2023/07/31 00:18:22;;;;;;;6.07;1.60;;;14.50;99.90;;;13.41;100.00;100500.88;4854310;29;20039;-85
2023/07/31 00:21:11;;;;;;;5.95;1.55;;;;;;;13.37;100.00;100496.72;4826579;28;20049;-85
2023/07/31 00:23:39;;;;;;;4.72;1.55;;;14.40;99.90;;;13.33;100.00;100492.56;4880602;28;20557;-86
2023/07/31 00:26:50;;;;;;;9.20;2.10;;;14.40;99.90;;;13.27;100.00;100493.75;4833351;29;20116;-85
2023/07/31 00:29:59;;;;;;;7.75;1.67;;;14.30;99.90;;;13.19;100.00;100488.09;4834860;29;20056;-84
2023/07/31 00:32:28;;;;;;;5.07;1.50;;;;;;;13.15;100.00;100489.22;4801439;29;20049;-85
2023/07/31 00:35:20;;;;;;;5.40;1.38;;;;;;;13.10;100.00;100489.50;4833524;29;20108;-85
2023/07/31 00:37:46;;;;;;;13.63;1.75;;;14.10;99.90;;;13.06;100.00;100485.34;4844463;29;20124;-85
2023/07/31 00:40:13;;;;;;;8.50;1.70;;;14.10;99.90;;;13.03;100.00;100479.41;4815115;29;20051;-85
2023/07/31 00:42:39;;;;;;;9.02;1.83;;;14.00;99.90;;;12.97;100.00;100471.84;4860574;29;20039;-85
2023/07/31 00:45:32;;;;;;;5.78;1.40;;;14.00;99.90;;;12.92;100.00;100478.25;4833107;29;20043;-85
2023/07/31 00:47:58;;;;;;;6.63;1.30;;;;;;;12.83;100.00;100477.94;4886756;29;20613;-85
2023/07/31 00:51:01;;;;;;;7.93;1.50;;;13.90;99.90;;;12.76;100.00;100480.09;4848006;29;20071;-85
2023/07/31 00:53:28;;;;;;;6.85;1.60;;;13.80;99.90;;;12.68;100.00;100477.09;4852188;29;20397;-85
2023/07/31 00:55:57;;;;;;;7.10;1.67;;;13.80;99.90;;;12.67;100.00;100475.38;4845741;29;20056;-85
2023/07/31 00:58:32;;;;;;;7.57;1.83;;;13.70;99.90;;;12.65;100.00;100479.91;4835107;29;20044;-85
2023/07/31 01:00:58;;;;;;;7.82;1.58;;;13.70;99.90;;;12.65;100.00;100478.09;4857807;29;20048;-85
2023/07/31 01:03:27;;;;;;;8.27;1.42;;;13.70;99.90;;;12.63;100.00;100472.06;4834904;29;20068;-86
2023/07/31 01:06:52;;;;;;;8.32;1.50;;;13.70;99.90;;;12.62;100.00;100475.66;4843480;28;20042;-84
2023/07/31 01:10:17;;;;;;;7.32;1.60;;;13.70;99.90;;;12.57;100.00;100472.44;4873983;28;20107;-84
2023/07/31 01:12:46;;;;;;;7.15;1.45;;;13.60;99.90;;;12.55;100.00;100474.31;4934540;29;20043;-85
2023/07/31 01:15:34;;;;;;;;;;;;;;;;;;;;;
2023/07/31 01:18:00;;;;;;;6.18;1.60;;;13.60;99.90;;;12.50;100.00;100469.31;4871066;28;21634;-85
2023/07/31 01:20:38;;;;;;;5.30;1.50;;;13.60;99.90;;;12.47;100.00;100466.84;4873041;28;20059;-86
2023/07/31 01:23:51;;;;;;;8.32;1.80;;;13.50;99.90;;;12.46;100.00;100467.78;4880093;28;20049;-85
2023/07/31 01:26:32;;;;;;;3.67;1.25;;;13.40;99.90;;;12.39;100.00;100458.50;4863467;29;20412;-85
2023/07/31 01:29:30;;;;;;;14.20;2.05;;;13.40;99.90;;;12.34;100.00;100455.28;4846875;28;20080;-85
2023/07/31 01:32:11;;;;;;;7.72;1.70;;;13.40;99.90;;;12.31;100.00;100460.78;4849108;28;20063;-85
2023/07/31 01:35:08;;;;;;;10.27;1.67;;;;;;;12.24;100.00;100444.41;4853538;28;20700;-86
2023/07/31 01:38:00;;;;;;;;;;;13.30;99.90;;;12.16;100.00;100448.44;4863020;29;20044;-86
2023/07/31 01:40:28;;;;;;;7.50;1.50;;;13.20;99.90;;;12.10;100.00;100447.84;4880570;28;20337;-85
2023/07/31 01:43:20;;;;;;;7.32;1.67;;;;;;;12.10;100.00;100452.28;4859667;28;20847;-86
2023/07/31 01:45:49;;;;;;;8.70;1.75;;;;;;;12.09;100.00;100451.44;4908559;28;20055;-85
2023/07/31 01:49:10;;;;;;;8.27;1.50;;;13.10;99.90;;;12.06;100.00;100451.59;4886395;28;20517;-85
2023/07/31 01:51:39;;;;;;;4.90;1.40;;;;;;;12.02;100.00;100436.03;4818605;29;20073;-85
2023/07/31 01:54:31;;;;;;;4.57;1.25;;;;;;;12.01;100.00;100440.47;4840200;29;20188;-85
2023/07/31 01:56:57;;;;;;;6.88;1.50;;;13.10;99.90;;;11.98;100.00;100432.72;4807412;29;20937;-85
2023/07/31 01:59:23;;;;;;;7.18;1.73;;;13.10;99.90;;;11.96;100.00;100434.59;4857967;29;20033;-85
2023/07/31 02:01:49;;;;;;;7.65;1.38;;;;;;;11.96;100.00;100439.03;4783375;29;20045;-86
2023/07/31 02:04:58;;;;;;;7.07;1.40;;;13.00;99.90;;;11.92;100.00;100437.50;4862536;29;20050;-86
2023/07/31 02:07:27;;;;;;;8.90;1.70;;;13.00;99.90;;;11.87;100.00;100435.09;4842625;29;20048;-86
2023/07/31 02:10:13;;;;;;;;;;;;;;;;;;;;;
2023/07/31 02:12:39;;;;;;;;;;;12.90;99.90;;;11.80;100.00;100439.00;4850781;29;20035;-85
2023/07/31 02:15:09;;;;;;;6.15;1.58;;;12.80;99.90;;;11.79;100.00;100442.56;4855595;29;19919;-85
2023/07/31 02:18:00;;;;;;;4.10;1.20;;;;;;;11.76;100.00;100440.97;4859795;28;20044;-85
2023/07/31 02:20:29;;;;;;;6.60;1.52;;;;;;;11.76;100.00;100437.47;4871454;29;20067;-85
2023/07/31 02:22:55;;;;;;;7.07;1.75;;;12.80;99.90;;;11.75;100.00;100430.50;4837406;29;20132;-85
2023/07/31 02:25:30;;;;;;;10.00;1.75;;;12.80;99.90;;;11.74;100.00;100428.81;4853973;29;20032;-85
2023/07/31 02:28:42;;;;;;;6.40;1.83;;;12.80;99.90;;;11.72;100.00;100431.53;4834067;29;20040;-86
2023/07/31 02:31:08;;;;;;;11.68;1.95;;;;;;;11.70;100.00;100425.47;4858138;29;20413;-85
2023/07/31 02:37:29;;;;;;;6.90;1.92;;;12.70;99.90;;;11.70;100.00;100430.75;4833150;29;20079;-85
2023/07/31 02:40:30;;;;;;;10.05;1.88;;;12.70;99.90;;;11.68;100.00;100424.72;4827898;29;20169;-86
2023/07/31 02:46:24;;;;;;;12.10;2.50;;;12.70;99.90;;;11.64;100.00;100415.25;4805465;29;20039;-85
2023/07/31 02:48:58;;;;;;;15.50;2.20;;;12.70;99.90;;;11.64;100.00;100413.50;4825801;29;20088;-85
2023/07/31 02:51:34;;;;;;;;;;;;;;;;;;;;;
2023/07/31 02:54:02;;;;;;;12.38;1.73;;;12.70;99.90;;;11.63;100.00;100416.22;4816895;29;21591;-85
2023/07/31 02:56:28;;;;;;;7.75;2.22;;;12.70;99.90;;;11.64;100.00;100413.50;4846404;29;20111;-85
2023/07/31 02:59:21;;;;;;;7.18;2.05;;;12.70;99.90;;;11.63;100.00;100409.16;4816586;29;20040;-84
2023/07/31 03:01:47;;;;;;;7.88;2.05;;;12.70;99.90;;;11.64;100.00;100407.34;4930790;23;20049;-84
2023/07/31 03:04:12;;;;;;;7.70;2.15;;;12.70;99.90;;;11.64;100.00;100396.81;4922728;28;20561;-84
2023/07/31 03:06:39;;;;;;;7.03;1.80;;;;;;;11.61;100.00;100407.53;4911584;28;20117;-85
2023/07/31 03:09:28;;;;;;;13.50;2.38;;;12.70;99.90;;;11.56;100.00;100407.81;4895763;28;20031;-85
2023/07/31 03:12:40;;;;;;;9.02;2.40;;;12.60;99.90;;;11.56;100.00;100402.53;4922275;28;20041;-86
2023/07/31 03:15:09;;;;;;;5.68;1.90;;;;;;;11.56;100.00;100399.88;4931792;28;20144;-84
2023/07/31 03:18:01;;;;;;;10.32;2.63;;;12.60;99.90;;;11.56;100.00;100402.53;4972925;28;20386;-85
2023/07/31 03:20:29;;;;;;;10.93;2.13;;;12.60;99.90;;;11.50;100.00;100387.88;4948172;28;20077;-84
2023/07/31 03:22:55;;;;;;;7.32;2.53;;;12.50;99.90;;;11.47;100.00;100389.88;4915899;28;20049;-84
2023/07/31 03:25:30;;;;;;;16.38;2.80;;;12.50;99.90;;;11.44;100.00;100387.38;4931236;28;20120;-84
2023/07/31 03:28:27;;;;;;;10.57;3.20;;;12.50;99.90;;;11.50;100.00;100387.88;4911202;28;20056;-84
2023/07/31 03:31:01;;;;;;;9.98;3.58;;;;;;;11.51;100.00;100391.38;4910178;28;20045;-84
2023/07/31 03:33:30;;;;;;;13.60;3.00;;;;;;;11.52;100.00;100389.59;4956794;28;20049;-85
2023/07/31 03:35:56;;;;;;;7.90;2.70;;;;;;;11.56;100.00;100399.88;4956799;28;20042;-84
2023/07/31 03:38:23;;;;;;;6.53;2.08;;;;;;;11.60;100.00;100408.50;4945833;28;20123;-84
2023/07/31 03:41:10;;;;;;;10.27;3.35;;;12.60;99.90;;;11.63;100.00;100403.88;4992553;23;20095;-84
2023/07/31 03:43:39;;;;;;;8.00;3.22;;;;;;;11.69;100.00;100406.16;4987041;28;20031;-84
2023/07/31 03:46:05;;;;;;;17.27;3.65;;;;;;;11.77;100.00;100402.25;4980529;28;20132;-85
2023/07/31 03:48:56;;;;;;;11.25;2.85;;;12.80;99.90;;;11.87;100.00;100399.00;4997210;28;20032;-84
2023/07/31 03:51:22;;;;;;;14.70;3.17;;;12.80;99.90;;;11.94;100.00;100391.59;4899306;28;20041;-84
2023/07/31 03:53:50;;;;;;;15.50;3.00;;;12.90;99.90;;;12.05;100.00;100397.13;4914514;28;20034;-85
2023/07/31 03:56:59;;;;;;;9.98;2.80;;;13.00;99.90;;;12.21;100.00;100399.72;4906843;28;20084;-85
2023/07/31 04:02:37;;;;;;;14.98;3.03;;;13.30;99.90;;;12.50;100.00;100392.72;4968308;23;20066;-84
2023/07/31 04:05:29;;;;;;;11.88;3.22;;;;;;;12.63;100.00;100402.53;4915574;28;20035;-85
2023/07/31 04:08:11;;;;;;;7.82;2.83;;;;;;;12.85;100.00;100392.38;4880332;28;20057;-84
2023/07/31 04:10:49;;;;;;;11.50;3.30;;;13.80;99.90;;;13.12;100.00;100395.09;4945581;28;20051;-85
2023/07/31 04:14:18;;;;;;;11.32;2.70;;;14.80;99.90;;;14.51;100.00;100394.91;4937114;28;20042;-84
2023/07/31 04:16:54;;;;;;;;;;;;;;;;;;;;;
2023/07/31 04:19:21;;;;;;;7.53;2.17;;;;;;;18.16;86.39;100413.47;4835054;29;20032;-84
2023/07/31 04:21:50;;;;;;;8.00;2.10;;;19.00;99.90;;;19.39;77.90;100413.59;4898909;23;20134;-85
2023/07/31 04:28:39;;;;;;;8.05;2.75;;;21.60;99.90;;;22.13;66.56;100428.88;4863961;29;20043;-85
2023/07/31 04:31:11;;;;;;;7.43;2.00;;;22.50;99.90;;;23.18;63.36;100433.56;4794677;29;20555;-83
2023/07/31 04:34:22;;;;;;;9.20;2.22;;;23.10;99.90;;;23.78;61.48;100446.03;4773667;29;20041;-85
2023/07/31 04:37:28;;;;;;;8.20;1.90;;;;;;;23.10;61.20;100432.50;4853573;29;20046;-85
2023/07/31 04:51:10;;;;;;;8.80;1.88;;;19.20;99.90;;;17.72;76.72;100387.81;4907654;28;20057;-85
2023/07/31 04:55:10;;;;;;;8.75;1.90;;;18.50;99.90;;;17.12;79.71;100379.34;4905777;28;20454;-84
2023/07/31 04:57:31;;;;;;;8.93;2.00;;;17.80;99.90;;;16.72;82.66;100377.13;4791226;29;20052;-86
2023/07/31 05:03:11;;;;;;;6.78;2.13;;;17.50;99.90;;;16.70;85.01;100373.75;4770006;29;20536;-84
2023/07/31 05:06:15;;;;;;;;;;;;;;;;;;;;;
2023/07/31 05:08:45;;;;;;;11.05;2.22;;;17.40;99.90;;;16.81;85.95;100368.47;4747273;29;20611;-78
2023/07/31 05:11:20;;;;;;;8.98;2.00;;;;;;;17.08;85.52;100365.41;4751026;29;20045;-85
2023/07/31 05:13:51;;;;;;;10.73;2.58;;;17.70;99.90;;;17.70;83.28;100371.13;4768812;29;20124;-85
2023/07/31 05:16:30;;;;;;;9.63;2.25;;;18.00;99.90;;;17.82;81.61;100372.81;4735740;29;20054;-86
2023/07/31 05:19:44;;;;;;;;;;;;;;;;;;;;;
2023/07/31 05:23:07;;;;;;;13.57;2.15;;;18.30;99.90;;;19.01;79.74;100376.97;4908265;23;20046;-87
2023/07/31 05:25:33;;;;;;;8.45;2.10;;;19.00;99.90;;;20.21;74.11;100385.72;4893695;28;20165;-84
2023/07/31 05:27:59;;;;;;;9.90;2.00;;;19.50;99.90;;;19.80;73.46;100377.00;4906255;28;20043;-84
2023/07/31 05:31:09;;;;;;;12.68;2.70;;;19.50;99.90;;;19.09;75.48;100365.59;4877469;28;20497;-86
2023/07/31 05:34:23;;;;;;;7.28;1.95;;;;;;;18.98;76.21;100366.53;4819406;29;20587;-85
2023/07/31 05:37:01;;;;;;;9.88;1.98;;;;;;;18.78;77.49;100362.97;4811578;29;21392;-86
2023/07/31 05:39:41;;;;;;;6.43;1.90;;;19.20;99.90;;;18.71;77.89;100364.44;4903600;28;20036;-85
2023/07/31 05:42:31;;;;;;;8.93;2.03;;;19.10;99.90;;;18.42;78.62;100357.09;4940709;23;20493;-84
2023/07/31 05:44:57;;;;;;;9.70;2.15;;;;;;;18.23;79.83;100349.84;4849543;29;20039;-85
2023/07/31 05:47:23;;;;;;;12.95;2.10;;;18.80;99.90;;;18.01;80.57;100353.47;4891864;29;20423;-84
2023/07/31 05:49:52;;;;;;;12.40;2.63;;;18.70;99.90;;;17.84;81.02;100346.91;4846998;29;20040;-84
2023/07/31 05:53:00;;;;;;;14.52;2.72;;;18.60;99.90;;;17.79;81.77;100338.41;4855360;29;20063;-84
2023/07/31 05:55:41;;;;;;;7.15;2.22;;;18.50;99.90;;;17.83;82.06;100337.22;4800356;29;20639;-86
2023/07/31 05:58:22;;;;;;;5.22;1.90;;;;;;;17.80;82.65;100335.63;4793769;29;20054;-86
2023/07/31 06:01:02;;;;;;;11.00;2.47;;;18.40;99.90;;;17.81;83.13;100329.31;4767363;29;20043;-84
2023/07/31 06:04:25;;;;;;;;;;;;;;;;;;;;;
2023/07/31 06:07:10;;;;;;;11.10;2.47;;;;;;;17.74;83.44;100333.47;4777829;29;20503;-85
2023/07/31 06:10:32;;;;;;;7.97;2.10;;;;;;;17.67;83.09;100334.06;4744024;30;20048;-86
2023/07/31 06:12:58;;;;;;;6.85;2.00;;;;;;;17.65;83.33;100338.72;4676116;30;20299;-86
2023/07/31 06:15:37;;;;;;;;;;;;;;;;;;;;;
2023/07/31 06:18:04;;;;;;;7.82;1.83;;;18.40;99.90;;;17.70;83.38;100326.69;4518396;30;4996914;-86
2023/07/31 06:20:30;;;;;;;10.47;2.07;;;18.40;99.90;;;17.66;83.31;100316.44;4689083;23;2486985;-87
2023/07/31 06:23:39;;;;;;;8.25;1.88;;;18.40;99.90;;;17.71;83.33;100325.75;4954316;28;20078;-86
2023/07/31 06:30:29;;;;;;;7.82;1.80;;;18.40;99.90;;;17.80;83.02;100321.47;4864772;29;20071;-86
2023/07/31 06:42:32;;;;;;;13.63;2.55;;;18.50;99.90;;;17.56;84.20;100327.00;4942476;23;20050;-86
2023/07/31 06:44:58;;;;;;;11.70;2.67;;;18.40;99.90;;;17.53;84.84;100332.56;4871252;28;20505;-85
2023/07/31 06:47:24;;;;;;;14.10;2.40;;;18.30;99.90;;;17.49;85.03;100337.28;4891525;28;20093;-85
2023/07/31 06:49:59;;;;;;;8.07;2.35;;;18.30;99.90;;;17.44;85.72;100334.16;4837128;29;20038;-85
2023/07/31 06:56:06;;;;;;;7.22;2.13;;;18.30;99.90;;;17.42;86.61;100310.31;4774111;29;20050;-85
2023/07/31 06:58:39;;;;;;;5.45;2.10;;;;;;;17.46;86.48;100316.25;4751860;29;20523;-86
2023/07/31 07:01:31;;;;;;;10.40;2.75;;;18.30;99.90;;;17.54;86.27;100312.97;4818782;23;20040;-85
2023/07/31 07:04:08;;;;;;;8.20;2.20;;;;;;;17.61;85.77;100316.81;4889658;28;20036;-85
2023/07/31 07:06:34;;;;;;;5.32;1.92;;;18.40;99.90;;;17.65;85.78;100318.25;4907269;28;20035;-85
2023/07/31 07:08:59;;;;;;;4.45;1.85;;;18.40;99.90;;;17.59;85.90;100314.28;4880891;28;20129;-85
2023/07/31 07:19:01;;;;;;;7.67;2.27;;;18.30;99.90;;;17.40;87.02;100312.25;4737863;29;20401;-86
2023/07/31 07:21:50;;;;;;;5.00;2.40;;;18.30;99.90;;;17.35;87.48;100309.16;4689098;29;20649;-85
2023/07/31 07:24:39;;;;;;;10.32;2.60;;;18.30;99.90;;;17.42;87.39;100299.69;4719360;29;20131;-85
2023/07/31 07:27:11;;;;;;;7.45;2.25;;;18.30;99.90;;;17.55;87.46;100304.00;4730526;30;20092;-85
2023/07/31 07:34:05;;;;;;;;;;;18.80;99.90;;;18.61;84.87;100297.72;3239838;30;5186505;-84
2023/07/31 07:36:32;;;;;;;4.88;1.90;;;;;;;18.98;82.30;100298.00;4174693;30;5003192;-85
2023/07/31 07:39:59;;;;;;;7.30;1.90;;;19.60;99.90;;;19.64;80.04;100293.91;3640694;30;5004530;-84
2023/07/31 07:42:31;;;;;;;12.48;2.08;;;20.20;99.90;;;20.37;76.79;100288.06;4958181;23;20054;-82
2023/07/31 07:44:57;;;;;;;8.13;1.60;;;20.80;99.90;;;21.08;73.11;100291.00;4904805;28;20035;-81
2023/07/31 07:47:23;;;;;;;4.43;1.85;;;21.30;99.90;;;21.43;71.14;100301.94;4905656;28;20057;-80
2023/07/31 07:49:49;;;;;;;4.85;1.50;;;21.70;99.90;;;21.76;68.41;100302.25;4889648;28;20049;-81
2023/07/31 07:52:15;;;;;;;5.20;1.70;;;22.00;99.90;;;22.10;67.53;100295.16;4889317;29;20047;-80
2023/07/31 07:54:45;;;;;;;3.40;1.50;;;22.30;99.90;;;22.23;66.49;100296.63;4896050;28;20080;-81
2023/07/31 07:57:11;;;;;;;9.82;1.30;;;22.40;99.90;;;22.11;66.03;100302.19;4864609;29;20048;-80
2023/07/31 07:59:36;;;;;;;4.65;1.67;;;22.40;99.90;;;21.86;66.20;100292.28;4866948;28;20599;-81
2023/07/31 08:02:02;;;;;;;3.38;1.60;;;22.30;99.90;;;21.65;66.26;100290.75;4907501;28;20613;-81
2023/07/31 08:04:28;;;;;;;3.55;1.13;;;22.20;99.90;;;21.52;66.79;100310.91;4912706;28;20047;-80
2023/07/31 08:06:54;;;;;;;3.80;1.30;;;22.10;99.90;;;21.40;67.35;100304.88;4908716;28;20717;-81
2023/07/31 08:09:27;;;;;;;5.20;2.17;;;21.90;99.90;;;21.22;67.73;100299.53;4922423;28;20122;-80
2023/07/31 08:11:53;;;;;;;5.32;2.00;;;21.80;99.90;;;20.99;68.08;100299.94;4918870;28;20047;-80
2023/07/31 08:14:19;;;;;;;3.88;1.63;;;21.70;99.90;;;20.95;68.28;100292.34;4867057;28;20041;-80
2023/07/31 08:16:45;;;;;;;2.70;1.35;;;21.50;99.90;;;20.80;69.41;100290.19;4898673;28;20039;-80
2023/07/31 08:19:11;;;;;;;7.00;2.65;;;21.50;99.90;;;20.81;68.91;100280.31;4885359;29;20126;-79
2023/07/31 08:21:42;;;;;;;3.65;1.40;;;21.50;99.90;;;20.83;68.75;100278.34;4894291;28;20071;-80
2023/07/31 08:24:08;;;;;;;3.10;1.50;;;21.50;99.90;;;20.86;69.47;100280.69;4922706;28;20542;-80
2023/07/31 08:26:34;;;;;;;4.15;1.52;;;21.40;99.90;;;20.92;68.76;100277.44;4872372;28;20055;-79
2023/07/31 08:28:59;;;;;;;3.13;1.50;;;21.50;99.90;;;20.86;67.63;100270.00;4863379;28;20043;-80
2023/07/31 08:31:26;;;;;;;5.93;1.30;;;21.50;99.90;;;20.95;68.31;100266.44;4903203;28;21221;-79
2023/07/31 08:33:56;;;;;;;4.40;1.38;;;21.60;99.90;;;21.14;68.21;100269.97;4893562;29;20388;-79
2023/07/31 08:36:22;;;;;;;4.32;1.40;;;21.60;99.90;;;21.28;67.84;100269.47;4889233;28;20046;-79
2023/07/31 08:38:49;;;;;;;3.53;1.50;;;21.70;99.90;;;21.26;67.33;100274.13;4899173;28;20121;-79
2023/07/31 08:41:17;;;;;;;3.85;1.48;;;21.70;99.90;;;21.06;66.84;100282.28;4882059;28;20751;-79
2023/07/31 08:43:50;;;;;;;3.03;1.25;;;21.60;99.90;;;20.94;67.34;100275.44;4920710;28;20069;-78
2023/07/31 08:46:15;;;;;;;2.75;1.27;;;21.50;99.90;;;20.88;67.46;100276.03;4883691;28;20041;-80
2023/07/31 08:48:45;;;;;;;3.67;1.15;;;21.50;99.90;;;20.89;67.81;100275.06;4883052;29;20483;-78
2023/07/31 08:51:11;;;;;;;4.97;1.90;;;21.50;99.90;;;20.89;67.38;100272.38;4857977;29;20462;-79
2023/07/31 08:53:43;;;;;;;2.35;1.15;;;21.50;99.90;;;20.90;67.83;100263.34;4893288;28;20050;-80
2023/07/31 08:56:11;;;;;;;2.03;1.20;;;21.50;99.90;;;20.82;67.61;100273.97;4903446;28;20039;-80
2023/07/31 08:58:39;;;;;;;4.47;1.60;;;21.50;99.90;;;20.98;67.12;100274.16;4912690;28;20106;-79
2023/07/31 09:01:07;;;;;;;2.33;1.33;;;21.50;99.90;;;20.97;67.00;100263.59;4951897;23;20042;-80
2023/07/31 09:03:37;;;;;;;6.55;1.75;;;21.60;99.90;;;20.95;66.65;100263.78;4935687;28;20514;-80
2023/07/31 09:06:06;;;;;;;2.33;1.23;;;21.50;99.90;;;20.96;66.83;100268.13;4936500;28;20059;-79
2023/07/31 09:08:39;;;;;;;2.03;1.25;;;21.50;99.90;;;20.95;67.59;100263.78;4933849;28;20901;-79
2023/07/31 09:11:05;;;;;;;3.78;1.55;;;21.50;99.90;;;20.85;67.15;100260.31;4937242;28;20035;-79
2023/07/31 09:13:32;;;;;;;5.20;1.70;;;21.40;99.90;;;20.76;67.17;100255.84;4928481;28;20042;-79
2023/07/31 09:15:59;;;;;;;7.10;1.60;;;21.40;99.90;;;20.72;67.59;100266.00;4968952;28;20047;-80
2023/07/31 09:18:30;;;;;;;2.75;1.30;;;21.40;99.90;;;20.75;67.55;100267.53;4930457;28;20085;-79
2023/07/31 09:21:09;;;;;;;2.72;1.48;;;21.40;99.90;;;20.66;67.24;100259.41;4949741;28;20126;-81
2023/07/31 09:23:56;;;;;;;4.28;1.50;;;21.30;99.90;;;20.63;67.96;100256.19;4956844;28;20038;-79
2023/07/31 09:26:33;;;;;;;;;;;21.30;99.90;;;20.69;67.90;100260.94;4918140;28;20042;-79
2023/07/31 09:29:00;;;;;;;;;;;21.30;99.90;;;20.66;68.40;100261.22;4941718;28;19922;-79
2023/07/31 09:31:39;;;;;;;;;;;21.30;99.90;;;20.64;68.33;100260.53;4936448;28;19921;-79
2023/07/31 09:34:06;;;;;;;2.25;1.25;;;21.30;99.90;;;20.65;68.75;100255.03;4963185;28;20016;-79
2023/07/31 09:36:45;;;;;;;4.55;1.33;;;21.30;99.90;;;20.66;68.61;100256.72;4940554;28;20050;-79
2023/07/31 09:39:22;;;;;;;5.03;1.67;;;21.30;99.90;;;20.71;68.47;100258.94;4945666;28;20678;-78
2023/07/31 09:41:58;;;;;;;5.97;1.65;;;21.30;99.90;;;20.80;68.72;100259.88;4946018;28;20039;-79
2023/07/31 09:44:40;;;;;;;6.28;1.50;;;21.40;99.90;;;20.82;68.32;100249.88;4947500;28;20026;-81
2023/07/31 09:47:26;;;;;;;2.95;1.40;;;21.40;99.90;;;20.83;68.13;100260.44;4964802;28;20101;-79
2023/07/31 09:49:56;;;;;;;4.03;1.45;;;21.50;99.90;;;20.76;68.53;100242.47;4952928;28;20044;-78
2023/07/31 09:52:22;;;;;;;5.47;1.80;;;21.50;99.90;;;20.96;68.39;100243.19;4927467;28;20091;-78
2023/07/31 09:54:51;;;;;;;5.82;1.40;;;21.50;99.90;;;21.04;67.59;100244.13;4977404;28;20034;-79
2023/07/31 09:57:25;;;;;;;3.05;1.38;;;21.60;99.90;;;21.07;66.88;100241.13;4955486;28;20039;-79
2023/07/31 09:59:52;;;;;;;3.05;1.50;;;21.60;99.90;;;21.10;67.08;100240.84;4969713;28;20080;-79
2023/07/31 10:02:23;;;;;;;2.92;1.40;;;21.70;99.90;;;21.30;67.26;100238.03;4974905;28;20065;-79
2023/07/31 10:04:58;;;;;;;3.63;1.55;;;21.80;99.90;;;21.57;67.78;100236.28;4973439;28;20045;-79
2023/07/31 10:07:31;;;;;;;2.42;1.23;;;22.00;99.90;;;21.75;66.20;100239.78;4959862;28;20076;-79
2023/07/31 10:10:02;;;;;;;4.03;1.30;;;22.20;99.90;;;21.96;65.25;100238.59;4988590;28;20041;-79
2023/07/31 10:12:29;;;;;;;3.75;1.45;;;22.30;99.90;;;22.00;64.94;100234.59;4984313;28;20611;-79
2023/07/31 10:14:55;;;;;;;6.93;1.55;;;22.50;99.90;;;22.03;64.38;100239.63;4953958;28;20031;-78
2023/07/31 10:17:28;;;;;;;4.72;1.55;;;22.50;99.90;;;21.98;63.93;100233.91;4952711;28;20037;-79
2023/07/31 10:19:58;;;;;;;2.83;1.25;;;22.60;99.90;;;22.05;63.76;100222.41;4956431;28;20106;-79
2023/07/31 10:22:29;;;;;;;5.65;1.40;;;22.60;99.90;;;22.22;64.63;100228.72;4956216;28;20034;-80
2023/07/31 10:24:57;;;;;;;3.63;1.25;;;22.70;99.90;;;22.37;64.07;100225.44;4929783;28;20088;-79
2023/07/31 10:27:26;;;;;;;2.88;1.23;;;22.90;99.90;;;22.46;63.06;100228.03;4974175;28;20601;-79
2023/07/31 10:29:59;;;;;;;4.30;1.55;;;22.90;99.90;;;22.38;62.56;100227.16;4948276;28;20117;-78
2023/07/31 10:32:28;;;;;;;2.40;1.25;;;22.90;99.90;;;22.34;62.86;100231.97;4947050;28;20671;-80
2023/07/31 10:35:01;;;;;;;3.25;1.10;;;22.90;99.90;;;22.41;63.85;100232.19;4959335;28;20058;-79
2023/07/31 10:37:42;;;;;;;2.22;1.10;;;22.90;99.90;;;22.47;62.24;100223.50;4948970;28;20043;-79
2023/07/31 10:40:39;;;;;;;3.05;1.27;;;23.00;99.90;;;22.60;61.44;100225.72;4958242;28;20057;-79
2023/07/31 10:43:08;;;;;;;2.95;1.13;;;23.10;99.90;;;22.90;61.54;100227.84;4949322;28;20043;-79
2023/07/31 10:45:41;;;;;;;4.40;1.30;;;23.40;99.90;;;23.23;60.51;100227.09;4960311;28;20042;-79
2023/07/31 10:48:14;;;;;;;2.75;1.20;;;23.60;99.90;;;23.57;60.07;100223.44;5005419;28;20038;-80
2023/07/31 10:51:01;;;;;;;2.20;1.13;;;24.00;99.90;;;23.79;59.12;100216.56;4969048;28;20034;-78
2023/07/31 10:53:31;;;;;;;5.10;1.08;;;24.20;99.90;;;24.03;58.84;100223.75;4979189;28;20038;-79
2023/07/31 10:56:18;;;;;;;3.33;1.25;;;24.40;99.90;;;24.22;58.22;100217.97;4988404;28;20460;-79
2023/07/31 10:59:03;;;;;;;4.63;1.10;;;24.60;99.90;;;24.21;58.29;100224.38;4961874;28;20166;-80
2023/07/31 11:02:02;;;;;;;1.60;0.80;;;24.60;99.90;;;23.92;58.00;100216.88;4934307;28;20622;-78
2023/07/31 11:04:30;;;;;;;3.85;1.10;;;24.60;99.90;;;23.97;57.40;100221.72;4947615;28;20030;-80
2023/07/31 11:07:02;;;;;;;2.25;1.00;;;24.60;99.90;;;24.13;57.04;100224.41;4964917;28;20042;-80
2023/07/31 11:09:43;;;;;;;5.55;1.45;;;24.60;99.90;;;24.11;57.59;100227.25;4947350;28;20045;-80
2023/07/31 11:12:10;;;;;;;2.72;1.13;;;24.60;99.90;;;23.84;58.27;100230.31;4950651;28;20050;-79
2023/07/31 11:14:39;;;;;;;3.38;1.42;;;24.30;99.90;;;23.41;60.24;100229.63;4980858;28;20092;-81
2023/07/31 11:17:10;;;;;;;5.85;1.20;;;24.00;99.90;;;23.12;61.23;100230.94;4957353;28;20038;-80
2023/07/31 11:19:38;;;;;;;1.92;1.13;;;23.70;99.90;;;22.80;62.06;100221.75;4957557;28;20397;-79
2023/07/31 11:22:04;;;;;;;2.05;1.08;;;23.40;99.90;;;22.67;62.83;100211.47;4935702;28;20027;-78
2023/07/31 11:24:30;;;;;;;5.60;1.10;;;23.30;99.90;;;22.68;65.12;100202.44;4900869;28;20383;-78
2023/07/31 11:27:01;;;;;;;2.92;1.20;;;23.20;99.90;;;22.71;65.40;100199.44;4897832;28;20046;-78
2023/07/31 11:29:28;;;;;;;4.60;1.13;;;23.20;99.90;;;22.72;66.29;100190.38;4966514;28;20026;-77
2023/07/31 11:31:54;;;;;;;3.50;1.10;;;23.10;99.90;;;22.65;67.18;100186.66;4913463;28;20034;-77
2023/07/31 11:34:20;;;;;;;4.03;1.52;;;23.10;99.90;;;22.62;67.08;100175.44;4978321;28;20604;-77
2023/07/31 11:36:56;;;;;;;3.13;1.10;;;23.10;99.90;;;22.60;66.35;100178.25;4974487;28;20038;-77
2023/07/31 11:39:22;;;;;;;2.95;1.40;;;23.10;99.90;;;22.57;66.05;100178.59;4957777;28;20046;-77
2023/07/31 11:41:47;;;;;;;2.63;1.02;;;23.10;99.90;;;22.49;66.53;100171.34;4925034;28;20033;-77
2023/07/31 11:44:13;;;;;;;2.00;0.95;;;23.00;99.90;;;22.40;65.89;100163.44;4968715;28;20536;-77
2023/07/31 11:46:39;;;;;;;2.03;1.20;;;22.90;99.90;;;22.29;66.04;100173.47;4941342;28;20128;-77
2023/07/31 11:49:06;;;;;;;3.33;1.33;;;22.80;99.90;;;21.97;66.50;100170.59;4951078;28;20034;-77
2023/07/31 11:51:32;;;;;;;3.50;1.02;;;22.60;99.90;;;21.69;65.85;100163.53;4955070;28;20485;-76
2023/07/31 11:54:02;;;;;;;1.92;1.20;;;22.40;99.90;;;21.66;65.82;100158.50;4933524;28;20045;-77
2023/07/31 11:56:28;;;;;;;1.88;1.05;;;22.30;99.90;;;21.66;66.18;100157.66;4939056;28;20540;-77
2023/07/31 11:59:02;;;;;;;6.72;1.40;;;22.20;99.90;;;21.43;65.97;100147.44;4963967;28;20034;-78
2023/07/31 12:01:28;;;;;;;2.55;0.95;;;22.20;99.90;;;21.42;66.91;100156.47;4958843;28;20469;-77
2023/07/31 12:03:55;;;;;;;1.92;0.90;;;22.10;99.90;;;21.24;66.70;100147.59;4952820;28;20132;-78
2023/07/31 12:06:21;;;;;;;2.33;1.15;;;21.90;99.90;;;21.03;67.56;100146.06;4960107;28;20052;-78
2023/07/31 12:08:48;;;;;;;5.93;1.35;;;21.90;99.90;;;20.88;67.88;100145.78;4958589;28;20064;-78
2023/07/31 12:11:14;;;;;;;3.53;1.42;;;21.60;99.90;;;20.86;68.03;100149.59;4911593;28;20116;-77